Portada
METAR-TAF:

METAR-TAF

Aeroports :

Siirt, Turquia

latitud: 37-58-41N, longitud: 41-50-21E, altitud: 610 m

Observació

L'informe es va fer fa 31 minuts, a les 09:50 UTC
Vent 8 kt del Sud/Sud-Oest, variant entre Sud-Est i Oest
Temperatura 36°C
Humitat 18%
Pressió 1004 hPa
Visibilitat 10 km o més
Escasses núvols a una alçada de 4000 ft

METAR: LTCL 170950Z 21008KT 140V270 9999 FEW040 36/08 Q1004

Hora: 13:21 (10:21 UTC)

Pronòstic

L'informe es va fer fa 2 hores i 41 minuts, a les 07:40 UTC
Pronòstic vàlid del 17 a les 09 UTC al 17 a les 18 UTC
Vent 9 kt del Sud
Visibilitat 10 km o més
sense núvols per sota de 1500 mi sense presència de cumulonimbus.

TAF: LTCL 170740Z 1709/1718 19009KT CAVOK

Observacions i pronòstics meteorològics de més de 4000 aeroports (METAR i TAF).

Les estacions disponibles són els punts grocs i vermells al mapa.

Posi el ratolí al punt desitjat per veure el nom de l'estació.

Feu clic per veure les observacions i els pronòstics meteorològics.

Per canviar el mapa: feu clic els botons verds amb una creu de color negre per apropar; al botó verd amb un guió per allunyar la imatge; o en les fletxes verdes per a mapes adjacents.


METAR-TAF: